createdAt,value
2018-07-27T00:00:30.678Z,95493.16
2018-07-27T00:03:10.248Z,95494.38
2018-07-27T00:05:41.312Z,95495.59
2018-07-27T00:08:16.667Z,95489.97
2018-07-27T00:10:46.308Z,95491.21
2018-07-27T00:13:15.276Z,95487.44
2018-07-27T00:15:44.627Z,95489.17
2018-07-27T00:18:17.629Z,95485.67
2018-07-27T00:20:50.460Z,95487.77
2018-07-27T00:23:19.628Z,95482.20
2018-07-27T00:25:48.467Z,95473.73
2018-07-27T00:28:17.293Z,95472.32
2018-07-27T00:30:46.124Z,95473.52
2018-07-27T00:33:14.950Z,95471.28
2018-07-27T00:35:44.571Z,95471.42
2018-07-27T00:38:13.653Z,95459.88
2018-07-27T00:40:42.539Z,95462.80
2018-07-27T00:43:12.037Z,95459.58
2018-07-27T00:45:44.482Z,95453.61
2018-07-27T00:48:13.500Z,95456.59
2018-07-27T00:50:42.580Z,95461.05
2018-07-27T00:53:11.406Z,95461.00
2018-07-27T00:55:41.373Z,95457.33
2018-07-27T00:58:11.118Z,95454.24
2018-07-27T01:00:40.153Z,95454.77
2018-07-27T01:03:09.668Z,95456.32
2018-07-27T01:05:38.526Z,95452.41
2018-07-27T01:08:07.796Z,95461.70
2018-07-27T01:10:37.334Z,95460.48
2018-07-27T01:13:06.193Z,95465.66
2018-07-27T01:15:35.767Z,95467.08
2018-07-27T01:18:04.606Z,95471.62
2018-07-27T01:20:33.752Z,95472.73
2018-07-27T01:23:02.961Z,95479.16
2018-07-27T01:25:31.796Z,95473.05
2018-07-27T01:28:00.683Z,95475.05
2018-07-27T01:30:29.533Z,95475.61
2018-07-27T01:32:58.942Z,95477.40
2018-07-27T01:35:27.971Z,95476.80
2018-07-27T01:37:56.816Z,95477.03
2018-07-27T01:40:26.364Z,95478.24
2018-07-27T01:42:55.855Z,95478.77
2018-07-27T01:45:24.680Z,95476.52
2018-07-27T01:47:53.935Z,95479.52
2018-07-27T01:50:23.467Z,95481.07
2018-07-27T01:52:52.328Z,95482.55
2018-07-27T01:55:21.473Z,95477.68
2018-07-27T01:57:50.909Z,95477.05
2018-07-27T02:00:20.062Z,95470.94
2018-07-27T02:02:48.983Z,95471.01
2018-07-27T02:05:18.149Z,95460.39
2018-07-27T02:07:47.325Z,95464.86
2018-07-27T02:10:16.145Z,95457.52
2018-07-27T02:12:45.202Z,95456.32
2018-07-27T02:15:14.399Z,95450.98
2018-07-27T02:17:43.444Z,95456.72
2018-07-27T02:20:12.612Z,95468.58
2018-07-27T02:22:41.673Z,95479.72
2018-07-27T02:25:10.829Z,95477.53
2018-07-27T02:27:39.683Z,95483.20
2018-07-27T02:30:08.512Z,95480.76
2018-07-27T02:32:37.397Z,95484.83
2018-07-27T02:35:06.620Z,95479.05
2018-07-27T02:37:35.646Z,95480.13
2018-07-27T02:40:04.967Z,95475.66
2018-07-27T02:42:33.889Z,95471.95
2018-07-27T02:45:02.944Z,95464.81
2018-07-27T02:47:31.772Z,95468.64
2018-07-27T02:50:00.629Z,95477.21
2018-07-27T02:52:29.884Z,95481.46
2018-07-27T02:54:59.080Z,95478.69
2018-07-27T02:57:27.956Z,95475.77
2018-07-27T02:59:57.314Z,95469.89
2018-07-27T03:02:27.260Z,95469.22
2018-07-27T03:04:56.131Z,95460.30
2018-07-27T03:07:25.177Z,95464.36
2018-07-27T03:09:54.422Z,95466.29
2018-07-27T03:12:23.609Z,95463.44
2018-07-27T03:14:52.453Z,95461.64
2018-07-27T03:17:22.062Z,95461.64
2018-07-27T03:19:51.583Z,95462.95
2018-07-27T03:22:20.761Z,95452.52
2018-07-27T03:24:50.076Z,95460.94
2018-07-27T03:27:19.232Z,95458.53
2018-07-27T03:29:48.084Z,95460.09
2018-07-27T03:32:17.139Z,95454.02
2018-07-27T03:34:45.990Z,95452.38
2018-07-27T03:37:15.413Z,95448.29
2018-07-27T03:39:44.477Z,95445.42
2018-07-27T03:42:13.368Z,95438.96
2018-07-27T03:44:42.733Z,95441.80
2018-07-27T03:47:11.647Z,95442.09
2018-07-27T03:49:40.499Z,95445.84
2018-07-27T03:52:09.604Z,95447.92
2018-07-27T03:54:38.439Z,95448.72
2018-07-27T03:57:07.361Z,95447.69
2018-07-27T03:59:36.195Z,95455.59
2018-07-27T04:02:05.037Z,95448.16
2018-07-27T04:04:33.852Z,95450.17
2018-07-27T04:07:22.813Z,95447.13
2018-07-27T04:09:51.797Z,95451.59
2018-07-27T04:12:23.622Z,95450.80
2018-07-27T04:14:54.077Z,95457.66
2018-07-27T04:17:23.085Z,95448.22
2018-07-27T04:19:52.860Z,95447.98
2018-07-27T04:22:22.565Z,95445.35
2018-07-27T04:24:52.873Z,95441.92
2018-07-27T04:27:21.700Z,95440.66
2018-07-27T04:29:50.748Z,95437.31
2018-07-27T04:32:19.932Z,95436.37
2018-07-27T04:34:49.117Z,95435.89
2018-07-27T04:37:18.315Z,95436.89
2018-07-27T04:39:47.148Z,95435.05
2018-07-27T04:42:16.042Z,95435.45
2018-07-27T04:44:44.871Z,95437.01
2018-07-27T04:47:13.696Z,95440.36
2018-07-27T04:49:42.556Z,95443.46
2018-07-27T04:52:12.187Z,95448.48
2018-07-27T04:54:42.912Z,95442.23
2018-07-27T04:57:14.788Z,95439.20
2018-07-27T04:59:45.584Z,95432.80
2018-07-27T05:02:38.094Z,95437.43
2018-07-27T05:05:10.421Z,95438.13
2018-07-27T05:07:42.102Z,95441.76
2018-07-27T05:10:18.406Z,95442.20
2018-07-27T05:12:47.784Z,95440.27
2018-07-27T05:15:17.451Z,95443.06
2018-07-27T05:17:47.241Z,95446.05
2018-07-27T05:20:26.173Z,95445.16
2018-07-27T05:25:57.467Z,95458.36
2018-07-27T05:28:41.210Z,95451.95
2018-07-27T05:31:15.714Z,95454.97
2018-07-27T05:37:53.678Z,95457.60
2018-07-27T05:40:35.764Z,95462.18
2018-07-27T05:43:25.945Z,95465.35
2018-07-27T05:46:00.755Z,95469.34
2018-07-27T05:49:04.508Z,95469.19
2018-07-27T05:51:58.115Z,95472.75
2018-07-27T05:55:23.906Z,95477.20
2018-07-27T06:02:10.436Z,95475.55
2018-07-27T06:04:38.812Z,95478.33
2018-07-27T06:07:12.215Z,95477.12
2018-07-27T06:09:50.142Z,95481.71
2018-07-27T06:12:19.356Z,95486.72
2018-07-27T06:14:52.945Z,95490.77
2018-07-27T06:17:33.900Z,95490.05
2018-07-27T06:20:08.285Z,95488.82
2018-07-27T06:23:00.652Z,95488.73
2018-07-27T06:25:52.660Z,95488.44
2018-07-27T06:31:17.392Z,95487.69
2018-07-27T06:33:46.495Z,95488.98
2018-07-27T06:36:15.704Z,95489.53
2018-07-27T06:38:44.770Z,95494.07
2018-07-27T06:41:24.498Z,95487.83
2018-07-27T06:43:55.630Z,95497.19
2018-07-27T06:46:30.214Z,95495.66
2018-07-27T06:49:02.631Z,95496.81
2018-07-27T06:51:31.594Z,95494.74
2018-07-27T06:54:17.703Z,95497.53
2018-07-27T06:57:00.883Z,95497.58
2018-07-27T06:59:54.227Z,95495.56
2018-07-27T07:05:22.104Z,95489.84
2018-07-27T07:07:50.972Z,95493.64
2018-07-27T07:10:22.058Z,95493.66
2018-07-27T07:13:03.220Z,95494.50
2018-07-27T07:15:37.802Z,95499.55
2018-07-27T07:18:50.118Z,95492.42
2018-07-27T07:21:21.604Z,95488.54
2018-07-27T07:32:55.409Z,95498.96
2018-07-27T07:35:57.240Z,95492.85
2018-07-27T07:38:42.766Z,95491.27
2018-07-27T07:41:19.925Z,95488.15
2018-07-27T07:44:00.506Z,95494.31
2018-07-27T07:46:45.826Z,95498.08
2018-07-27T07:58:02.205Z,95477.77
2018-07-27T08:06:24.913Z,95460.55
2018-07-27T08:09:01.984Z,95462.92
2018-07-27T08:11:41.478Z,95466.90
2018-07-27T09:02:36.611Z,95447.98
2018-07-27T09:05:11.923Z,95451.55
2018-07-27T09:13:43.634Z,95452.72
2018-07-27T09:19:23.923Z,95453.73
2018-07-27T09:22:01.623Z,95447.65
2018-07-27T09:24:45.592Z,95447.16
2018-07-27T09:30:15.343Z,95444.13
2018-07-27T09:33:13.681Z,95441.66
2018-07-27T09:41:09.960Z,95438.06
2018-07-27T09:43:51.051Z,95440.53
2018-07-27T09:49:11.365Z,95433.10
2018-07-27T09:51:56.676Z,95431.77
2018-07-27T09:57:37.530Z,95420.80
2018-07-27T10:03:15.480Z,95412.33
2018-07-27T13:49:43.972Z,95220.14
2018-07-27T14:10:18.129Z,95206.27
2018-07-27T14:13:29.020Z,95192.57
2018-07-27T14:16:13.764Z,95195.54
2018-07-27T14:18:42.995Z,95196.05
2018-07-27T14:21:12.543Z,95199.41
2018-07-27T14:36:09.579Z,95192.09
2018-07-27T14:52:30.834Z,95178.81
2018-07-27T14:55:10.446Z,95175.40
2018-07-27T14:57:42.546Z,95179.13
2018-07-27T15:00:20.762Z,95176.94
2018-07-27T15:02:56.877Z,95176.55
2018-07-27T15:05:25.994Z,95171.58
2018-07-27T15:07:55.581Z,95170.78
2018-07-27T15:10:24.528Z,95172.39
2018-07-27T15:12:57.665Z,95172.58
2018-07-27T15:15:28.443Z,95168.00
2018-07-27T15:18:02.682Z,95164.91
2018-07-27T15:20:48.721Z,95161.47
2018-07-27T15:23:25.404Z,95164.60
2018-07-27T15:25:58.771Z,95155.38
2018-07-27T15:28:42.761Z,95151.28
2018-07-27T15:31:14.281Z,95158.25
2018-07-27T15:33:44.622Z,95161.85
2018-07-27T15:36:20.098Z,95154.08
2018-07-27T15:38:50.208Z,95146.56
2018-07-27T15:41:19.490Z,95151.41
2018-07-27T15:43:48.672Z,95159.84
2018-07-27T15:46:17.676Z,95158.81
2018-07-27T15:48:47.076Z,95166.80
2018-07-27T15:51:15.946Z,95164.11
2018-07-27T15:53:58.564Z,95164.09
2018-07-27T15:56:28.383Z,95160.08
2018-07-27T15:58:57.544Z,95159.06
2018-07-27T16:01:26.488Z,95157.25
2018-07-27T16:03:55.482Z,95151.53
2018-07-27T16:06:24.885Z,95149.83
2018-07-27T16:08:53.815Z,95155.90
2018-07-27T16:11:22.944Z,95148.94
2018-07-27T16:13:52.551Z,95147.60
2018-07-27T16:16:26.899Z,95151.53
2018-07-27T16:18:56.926Z,95143.67
2018-07-27T16:21:28.392Z,95141.52
2018-07-27T16:23:57.797Z,95139.27
2018-07-27T16:26:27.029Z,95135.79
2018-07-27T16:28:56.233Z,95135.45
2018-07-27T16:31:25.468Z,95137.97
2018-07-27T16:33:54.560Z,95133.38
2018-07-27T16:36:23.525Z,95132.92
2018-07-27T16:38:52.563Z,95130.87
2018-07-27T16:41:21.836Z,95129.59
2018-07-27T16:43:51.740Z,95130.08
2018-07-27T16:46:20.736Z,95126.55
2018-07-27T16:48:49.957Z,95134.82
2018-07-27T16:51:19.878Z,95133.30
2018-07-27T16:53:49.510Z,95133.20
2018-07-27T16:56:18.711Z,95137.41
2018-07-27T16:58:47.854Z,95135.99
2018-07-27T17:01:16.934Z,95134.49
2018-07-27T17:03:46.141Z,95137.41
2018-07-27T17:06:15.692Z,95137.05
2018-07-27T17:08:44.773Z,95129.69
2018-07-27T17:11:13.898Z,95134.61
2018-07-27T17:13:42.976Z,95140.30
2018-07-27T17:16:12.140Z,95137.39
2018-07-27T17:18:41.032Z,95141.53
2018-07-27T17:21:10.086Z,95136.73
2018-07-27T17:23:39.160Z,95146.59
2018-07-27T17:26:08.360Z,95143.52
2018-07-27T17:28:37.452Z,95149.61
2018-07-27T17:31:06.810Z,95150.00
2018-07-27T17:33:35.652Z,95149.29
2018-07-27T17:36:04.504Z,95150.77
2018-07-27T17:38:34.675Z,95152.13
2018-07-27T17:41:03.896Z,95151.53
2018-07-27T17:43:38.905Z,95153.87
2018-07-27T17:46:36.349Z,95153.80
2018-07-27T17:49:13.938Z,95148.49
2018-07-27T17:51:57.653Z,95155.27
2018-07-27T17:54:28.074Z,95155.24
2018-07-27T17:57:01.202Z,95153.67
2018-07-27T17:59:54.619Z,95150.35
2018-07-27T18:02:41.990Z,95162.33
2018-07-27T18:05:33.490Z,95156.89
2018-07-27T18:08:20.320Z,95154.39
2018-07-27T18:11:16.941Z,95157.88
2018-07-27T18:13:55.062Z,95160.99
2018-07-27T18:16:28.013Z,95164.36
2018-07-27T18:18:57.168Z,95164.56
2018-07-27T18:21:26.220Z,95162.69
2018-07-27T18:24:05.936Z,95165.91
2018-07-27T18:26:49.133Z,95173.31
2018-07-27T18:29:26.018Z,95177.61
2018-07-27T18:31:57.563Z,95172.31
2018-07-27T18:34:26.721Z,95167.67
2018-07-27T18:37:04.790Z,95170.59
2018-07-27T18:41:54.073Z,95168.30
2018-07-27T18:44:23.840Z,95173.00
2018-07-27T18:47:06.067Z,95175.68
2018-07-27T18:52:30.989Z,95168.86
2018-07-27T18:55:00.438Z,95172.58
2018-07-27T18:57:30.490Z,95173.84
2018-07-27T19:02:59.830Z,95179.02
2018-07-27T19:05:47.222Z,95179.23
2018-07-27T19:17:29.688Z,95175.48
2018-07-27T19:22:44.878Z,95186.56
2018-07-27T19:25:30.602Z,95185.02
2018-07-27T19:31:06.453Z,95192.63
2018-07-27T19:42:57.228Z,95194.42
2018-07-27T19:49:02.123Z,95189.74
2018-07-27T19:51:49.750Z,95192.16
2018-07-27T19:57:38.454Z,95200.20
2018-07-27T20:00:24.236Z,95197.06
2018-07-27T20:52:11.134Z,95171.86
2018-07-27T21:10:33.748Z,95173.22
2018-07-27T21:13:30.222Z,95172.69
2018-07-27T21:16:18.337Z,95174.01
2018-07-27T21:33:12.505Z,95163.19
2018-07-27T21:40:55.820Z,95162.13
2018-07-27T21:43:26.113Z,95163.42
2018-07-27T21:45:55.669Z,95156.80
2018-07-27T21:48:26.102Z,95152.83
2018-07-27T21:51:00.183Z,95150.18
2018-07-27T21:53:52.865Z,95147.00
2018-07-27T21:56:44.051Z,95149.91
2018-07-27T22:02:18.991Z,95151.77
